Time;durP1;ratioP1;P1;durP2;ratioP2;P2;SDS_P1;SDS_P2;PMS_P1;PMS_P2;Temp;Humidity;BMP_temperature;BMP_pressure;BME280_temperature;BME280_humidity;BME280_pressure;Samples;Min_cycle;Max_cycle;Signal;HPM_P1;HPM_P2
2021/06/25 00:00:39;;;;;;;8.07;5.93;;;;;;;16.92;94.00;100712.81;5020129;28;20037;-78
2021/06/25 00:03:05;;;;;;;8.23;5.95;;;;;;;16.94;93.38;100713.44;5015757;28;20045;-78
2021/06/25 00:05:31;;;;;;;5.57;4.68;;;;;;;16.94;94.28;100716.13;5017177;28;20029;-78
2021/06/25 00:07:56;;;;;;;4.63;4.13;;;;;;;17.00;94.00;100714.56;5030599;28;20034;-78
2021/06/25 00:10:21;;;;;;;6.43;5.10;;;;;;;17.01;93.89;100705.50;5044603;28;20033;-78
2021/06/25 00:12:47;;;;;;;4.47;4.03;;;;;;;17.01;93.59;100705.50;5032463;28;20025;-78
2021/06/25 00:15:13;;;;;;;5.32;4.43;;;;;;;16.99;93.53;100708.34;5021274;28;20052;-78
2021/06/25 00:17:38;;;;;;;6.78;5.38;;;;;;;17.02;92.30;100702.66;5024268;28;20029;-78
2021/06/25 00:20:06;;;;;;;6.85;5.85;;;;;;;17.04;92.51;100705.13;5029637;28;20040;-78
2021/06/25 00:22:31;;;;;;;8.20;6.00;;;;;;;17.03;92.91;100712.31;5014397;28;20060;-78
2021/06/25 00:24:57;;;;;;;6.35;5.35;;;;;;;17.03;92.97;100714.97;5034842;28;20490;-79
2021/06/25 00:27:22;;;;;;;5.88;5.15;;;;;;;17.03;92.54;100708.81;5024104;28;20127;-78
2021/06/25 00:29:47;;;;;;;5.45;4.88;;;;;;;17.03;92.69;100714.16;5014462;28;20097;-79
2021/06/25 00:32:13;;;;;;;5.32;4.43;;;;;;;17.03;92.60;100709.63;5027296;28;20405;-78
2021/06/25 00:34:38;;;;;;;7.30;5.38;;;;;;;17.03;92.34;100709.63;5018190;28;20030;-79
2021/06/25 00:37:04;;;;;;;6.03;5.10;;;;;;;17.02;92.40;100708.00;5031047;28;20029;-78
2021/06/25 00:39:30;;;;;;;7.45;6.15;;;;;;;16.97;91.94;100710.38;5030288;28;20029;-78
2021/06/25 00:41:55;;;;;;;8.90;6.30;;;;;;;17.00;91.91;100706.53;5025124;28;20037;-78
2021/06/25 00:44:21;;;;;;;6.13;5.30;;;;;;;16.95;92.62;100707.91;5017598;28;20076;-78
2021/06/25 00:46:47;;;;;;;9.60;6.05;;;;;;;16.93;92.17;100699.25;5024342;28;20037;-78
2021/06/25 00:49:13;;;;;;;7.70;6.28;;;;;;;16.90;92.29;100702.31;5018626;28;20522;-78
2021/06/25 00:51:40;;;;;;;8.60;7.03;;;;;;;16.88;91.90;100703.53;5016091;28;20116;-78
2021/06/25 00:54:07;;;;;;;10.88;6.95;;;;;;;16.85;92.13;100701.22;5028776;28;20379;-78
2021/06/25 00:56:33;;;;;;;8.88;6.65;;;;;;;16.78;92.22;100703.81;5017065;28;20034;-78
2021/06/25 00:58:59;;;;;;;6.35;5.60;;;;;;;16.81;92.32;100705.31;5013421;28;20044;-77
2021/06/25 01:01:25;;;;;;;6.55;5.60;;;;;;;16.87;92.36;100700.00;5027963;28;20049;-78
2021/06/25 01:03:50;;;;;;;5.88;5.28;;;;;;;16.88;92.51;100693.66;5029338;28;20111;-78
2021/06/25 01:06:15;;;;;;;6.07;4.75;;;;;;;16.91;92.17;100695.94;5021679;28;20091;-78
2021/06/25 01:08:43;;;;;;;6.40;5.47;;;;;;;16.90;92.48;100704.16;5031046;28;20525;-78
2021/06/25 01:11:08;;;;;;;8.60;6.82;;;;;;;16.81;92.27;100703.44;5020459;28;20043;-78
2021/06/25 01:13:36;;;;;;;8.27;6.50;;;;;;;16.81;92.21;100702.63;5034064;28;20478;-78
2021/06/25 01:16:02;;;;;;;8.50;6.80;;;;;;;16.77;92.00;100700.28;5033496;28;20053;-78
2021/06/25 01:18:27;;;;;;;6.57;5.70;;;;;;;16.76;92.91;100692.47;5034615;28;20135;-78
2021/06/25 01:20:57;;;;;;;7.68;6.05;;;;;;;16.77;92.50;100700.28;5017958;28;20053;-77
2021/06/25 01:23:23;;;;;;;9.55;6.57;;;;;;;16.76;92.68;100700.50;5029055;28;20438;-77
2021/06/25 01:25:48;;;;;;;6.28;5.43;;;;;;;16.74;92.21;100700.66;5041818;28;20149;-78
2021/06/25 01:28:13;;;;;;;6.50;5.35;;;;;;;16.69;92.51;100697.75;5019439;28;20087;-78
2021/06/25 01:30:42;;;;;;;7.05;5.97;;;;;;;16.71;93.06;100700.22;5031941;28;20037;-78
2021/06/25 01:33:14;;;;;;;8.32;6.45;;;;;;;16.64;92.51;100699.31;5029938;28;20034;-78
2021/06/25 01:35:40;;;;;;;8.85;6.00;;;;;;;16.63;92.38;100695.81;5020119;28;20037;-78
2021/06/25 01:38:06;;;;;;;8.07;5.80;;;;;;;16.62;93.02;100699.50;5013337;28;20037;-77
2021/06/25 01:40:36;;;;;;;5.90;5.30;;;;;;;16.62;93.24;100701.34;5030720;28;20402;-78
2021/06/25 01:43:02;;;;;;;9.25;6.10;;;;;;;16.65;93.08;100691.09;5032188;28;20038;-78
2021/06/25 01:45:30;;;;;;;6.53;5.82;;;;;;;16.65;93.93;100691.09;5014741;28;20045;-78
2021/06/25 01:47:57;;;;;;;11.63;6.78;;;;;;;16.69;92.72;100692.41;5017418;28;20387;-78
2021/06/25 01:50:25;;;;;;;8.13;6.90;;;;;;;16.69;92.38;100687.06;5032145;28;20030;-78
2021/06/25 01:52:53;;;;;;;8.25;6.90;;;;;;;16.64;93.09;100691.31;5035585;28;20049;-78
2021/06/25 01:55:19;;;;;;;9.23;6.65;;;;;;;16.67;92.93;100688.25;5030254;28;20168;-77
2021/06/25 01:57:45;;;;;;;7.63;5.55;;;;;;;16.65;93.73;100688.44;5030803;28;20492;-78
2021/06/25 02:00:12;;;;;;;9.70;7.65;;;;;;;16.61;93.03;100681.81;5027241;28;20048;-78
2021/06/25 02:02:38;;;;;;;8.63;7.28;;;;;;;16.57;94.16;100680.56;5022723;28;20034;-77
2021/06/25 02:05:06;;;;;;;10.65;7.55;;;;;;;16.56;93.59;100692.22;5029171;28;20443;-77
2021/06/25 02:07:31;;;;;;;8.75;6.20;;;;;;;16.51;94.78;100690.13;5027847;28;20038;-77
2021/06/25 02:09:57;;;;;;;7.35;5.68;;;;;;;16.54;93.62;100686.25;5016316;28;20045;-78
2021/06/25 02:12:23;;;;;;;8.30;6.93;;;;;;;16.47;94.61;100683.50;5024844;28;20119;-78
2021/06/25 02:14:48;;;;;;;10.95;7.43;;;;;;;16.46;94.48;100681.84;5032378;28;20037;-78
2021/06/25 02:17:16;;;;;;;10.40;8.02;;;;;;;16.45;94.40;100682.06;5028040;28;20033;-78
2021/06/25 02:19:41;;;;;;;9.85;8.60;;;;;;;16.42;95.14;100679.72;5024990;28;20323;-78
2021/06/25 02:22:07;;;;;;;9.60;8.23;;;;;;;16.39;95.98;100678.25;5030012;28;20065;-78
2021/06/25 02:24:32;;;;;;;9.02;7.85;;;;;;;16.40;96.34;100679.94;5033931;28;20074;-78
2021/06/25 02:26:57;;;;;;;11.68;9.48;;;;;;;16.41;96.66;100676.25;5029462;28;20045;-78
2021/06/25 02:29:23;;;;;;;14.90;12.27;;;;;;;16.37;97.24;100674.94;5035225;28;20045;-78
2021/06/25 02:31:48;;;;;;;12.98;10.18;;;;;;;16.37;96.67;100680.28;5031285;28;20116;-78
2021/06/25 02:34:13;;;;;;;12.52;11.18;;;;;;;16.34;97.22;100688.69;5031032;28;20030;-78
2021/06/25 02:36:39;;;;;;;11.73;10.00;;;;;;;16.34;97.10;100688.69;5025218;28;20160;-78
2021/06/25 02:39:04;;;;;;;13.02;11.40;;;;;;;16.28;98.33;100687.59;5031241;28;20041;-78
2021/06/25 02:41:30;;;;;;;18.98;15.55;;;;;;;16.21;97.81;100684.00;5023829;28;20038;-78
2021/06/25 02:43:55;;;;;;;20.02;16.65;;;;;;;16.14;97.59;100683.09;5030874;28;20034;-78
2021/06/25 02:46:20;;;;;;;15.85;13.20;;;;;;;16.18;97.71;100689.69;5030254;28;20409;-78
2021/06/25 02:48:46;;;;;;;16.25;12.75;;;;;;;16.22;97.63;100685.66;5023693;28;20398;-78
2021/06/25 02:51:11;;;;;;;17.77;14.25;;;;;;;16.17;97.81;100682.72;5019104;28;20057;-78
2021/06/25 02:53:36;;;;;;;18.73;15.90;;;;;;;16.16;97.88;100682.88;5032584;28;20037;-78
2021/06/25 02:56:02;;;;;;;26.40;18.60;;;;;;;16.12;97.81;100683.25;5027623;28;20052;-79
2021/06/25 02:58:27;;;;;;;21.23;16.33;;;;;;;16.10;98.57;100681.78;5025572;28;20190;-78
2021/06/25 03:00:53;;;;;;;17.65;14.73;;;;;;;16.11;99.21;100683.44;5023066;28;20034;-78
2021/06/25 03:03:19;;;;;;;19.70;14.95;;;;;;;16.07;100.00;100685.66;5028493;28;20033;-78
2021/06/25 03:05:45;;;;;;;16.42;14.20;;;;;;;16.12;99.87;100688.59;5024211;28;20294;-78
2021/06/25 03:08:14;;;;;;;17.88;15.10;;;;;;;16.13;100.00;100684.06;5013829;28;20038;-78
2021/06/25 03:10:42;;;;;;;20.45;17.60;;;;;;;16.09;100.00;100690.81;5025505;28;20065;-78
2021/06/25 03:13:07;;;;;;;20.25;16.98;;;;;;;16.10;99.68;100681.78;5038376;28;20041;-78
2021/06/25 03:15:32;;;;;;;14.65;13.05;;;;;;;16.13;99.71;100682.22;5025247;28;20076;-79
2021/06/25 03:17:58;;;;;;;17.30;13.13;;;;;;;16.14;99.39;100683.91;5030353;28;20444;-79
2021/06/25 03:20:23;;;;;;;17.30;14.50;;;;;;;16.20;99.55;100684.19;5041065;28;20341;-79
2021/06/25 03:22:49;;;;;;;17.02;14.02;;;;;;;16.19;99.48;100674.53;5031185;28;20033;-79
2021/06/25 03:25:15;;;;;;;20.05;16.92;;;;;;;16.12;99.59;100679.78;5030257;28;20100;-79
2021/06/25 03:27:40;;;;;;;21.23;17.45;;;;;;;16.09;99.48;100680.97;5026670;28;20526;-79
2021/06/25 03:30:09;;;;;;;17.55;14.38;;;;;;;16.13;99.20;100681.41;5028517;28;20082;-79
2021/06/25 03:32:35;;;;;;;16.60;13.00;;;;;;;16.14;98.86;100677.75;5026776;28;20044;-79
2021/06/25 03:35:02;;;;;;;15.93;12.70;;;;;;;16.16;99.17;100683.72;5030739;28;20038;-79
2021/06/25 03:37:27;;;;;;;13.43;11.75;;;;;;;16.20;99.25;100690.34;5017571;28;20034;-79
2021/06/25 03:39:52;;;;;;;13.32;11.65;;;;;;;16.22;100.00;100688.31;5018532;28;20052;-79
2021/06/25 03:42:18;;;;;;;11.70;10.00;;;;;;;16.24;99.12;100691.63;5014112;28;20045;-79
2021/06/25 03:44:43;;;;;;;13.40;11.63;;;;;;;16.24;98.77;100693.47;5025266;28;20036;-79
2021/06/25 03:47:09;;;;;;;16.60;13.82;;;;;;;16.21;99.51;100684.00;5022496;28;20503;-79
2021/06/25 03:49:34;;;;;;;19.90;16.90;;;;;;;16.19;99.50;100685.19;5029702;28;20038;-79
2021/06/25 03:52:00;;;;;;;19.30;16.05;;;;;;;16.20;99.19;100687.66;5014094;28;20041;-79
2021/06/25 03:54:25;;;;;;;17.70;15.48;;;;;;;16.22;99.27;100685.66;5023449;28;20038;-79
2021/06/25 03:56:51;;;;;;;23.30;18.35;;;;;;;16.20;99.74;100684.19;5019689;28;20044;-79
2021/06/25 03:59:16;;;;;;;19.15;15.38;;;;;;;16.22;99.79;100688.31;5012214;28;20417;-79
2021/06/25 04:01:42;;;;;;;24.55;19.55;;;;;;;16.21;99.58;100689.34;5023619;28;20030;-79
2021/06/25 04:04:08;;;;;;;17.42;15.00;;;;;;;16.25;100.00;100687.94;5028276;28;20033;-79
2021/06/25 04:06:33;;;;;;;14.90;12.57;;;;;;;16.26;99.59;100686.94;5022661;28;20525;-80
2021/06/25 04:08:58;;;;;;;19.23;17.02;;;;;;;16.22;99.35;100684.81;5027881;28;20110;-79
2021/06/25 04:11:24;;;;;;;17.92;15.35;;;;;;;16.20;100.00;100687.66;5025857;28;20041;-79
2021/06/25 04:13:49;;;;;;;20.17;16.52;;;;;;;16.25;100.00;100687.13;5019076;28;20034;-79
2021/06/25 04:16:15;;;;;;;17.92;14.02;;;;;;;16.29;99.53;100683.88;5016868;28;20037;-79
2021/06/25 04:18:40;;;;;;;13.80;12.13;;;;;;;16.33;99.48;100687.84;5015382;28;20080;-79
2021/06/25 04:21:05;;;;;;;13.23;11.60;;;;;;;16.39;99.86;100690.78;5014132;28;20094;-79
2021/06/25 04:23:31;;;;;;;14.30;12.55;;;;;;;16.41;99.42;100688.75;5015177;28;20084;-79
2021/06/25 04:25:57;;;;;;;15.00;13.05;;;;;;;16.43;99.39;100689.41;5022217;28;20049;-79
2021/06/25 04:28:23;;;;;;;16.50;14.05;;;;;;;16.45;99.05;100696.22;5029100;28;20445;-79
2021/06/25 04:30:49;;;;;;;19.90;16.38;;;;;;;16.40;99.22;100690.63;5020963;28;20603;-80
2021/06/25 04:33:14;;;;;;;15.93;13.65;;;;;;;16.42;99.05;100688.59;5033033;28;20552;-80
2021/06/25 04:35:41;;;;;;;16.20;14.13;;;;;;;16.46;99.17;100697.03;5031904;28;20037;-80
2021/06/25 04:38:07;;;;;;;20.88;17.48;;;;;;;16.45;98.85;100693.56;5032626;28;20133;-80
2021/06/25 04:40:33;;;;;;;22.63;19.15;;;;;;;16.41;98.90;100691.44;5026828;28;20042;-80
2021/06/25 04:42:59;;;;;;;16.77;14.40;;;;;;;16.45;98.80;100695.41;5032932;28;20037;-79
2021/06/25 04:45:25;;;;;;;17.50;14.45;;;;;;;16.50;99.08;100698.34;5030400;28;20444;-79
2021/06/25 04:47:51;;;;;;;16.85;14.85;;;;;;;16.54;98.46;100691.59;5030849;28;20611;-79
2021/06/25 04:50:16;;;;;;;23.92;19.83;;;;;;;16.49;98.92;100692.16;5024390;28;20033;-80
2021/06/25 04:52:42;;;;;;;29.17;22.90;;;;;;;16.50;98.42;100699.16;5034706;28;20068;-79
2021/06/25 04:55:08;;;;;;;20.85;18.08;;;;;;;16.56;98.42;100693.06;5034271;28;20410;-79
2021/06/25 04:57:34;;;;;;;17.17;15.05;;;;;;;16.63;98.33;100693.13;5023174;28;20038;-79
2021/06/25 04:59:59;;;;;;;19.25;16.02;;;;;;;16.67;97.95;100689.09;5024951;28;20036;-79
2021/06/25 05:02:25;;;;;;;23.25;20.00;;;;;;;16.66;98.21;100689.25;5032965;28;20107;-79
2021/06/25 05:04:51;;;;;;;18.73;16.33;;;;;;;16.68;98.07;100693.38;5031804;28;20160;-79
2021/06/25 05:07:16;;;;;;;16.08;13.93;;;;;;;16.74;98.11;100689.97;5025274;28;20096;-79
2021/06/25 05:09:41;;;;;;;25.90;21.52;;;;;;;16.67;98.06;100685.59;5030843;28;20045;-79
2021/06/25 05:12:07;;;;;;;23.13;19.48;;;;;;;16.69;97.88;100683.56;5027772;28;20047;-79
2021/06/25 05:14:33;;;;;;;21.80;18.23;;;;;;;16.75;98.23;100682.78;5014557;28;20391;-79
2021/06/25 05:16:59;;;;;;;31.05;23.65;;;;;;;16.75;97.63;100683.63;5029136;28;20042;-79
2021/06/25 05:19:24;;;;;;;24.45;20.58;;;;;;;16.81;97.54;100691.94;5031417;28;20033;-79
2021/06/25 05:21:49;;;;;;;25.17;20.85;;;;;;;16.77;97.11;100686.94;5030941;28;20034;-79
2021/06/25 05:24:15;;;;;;;27.50;22.95;;;;;;;16.74;97.02;100689.97;5027211;28;20201;-79
2021/06/25 05:26:40;;;;;;;27.95;24.27;;;;;;;16.61;96.85;100692.50;5043563;28;20113;-79
2021/06/25 05:29:06;;;;;;;30.00;24.85;;;;;;;16.68;96.88;100689.91;5025001;28;20064;-79
2021/06/25 05:31:31;;;;;;;29.00;24.50;;;;;;;16.68;96.47;100695.25;5025967;28;20175;-79
2021/06/25 05:33:57;;;;;;;30.38;24.35;;;;;;;16.73;96.03;100696.34;5031154;28;20037;-79
2021/06/25 05:36:23;;;;;;;33.28;25.92;;;;;;;16.69;95.81;100694.25;5014046;28;20038;-79
2021/06/25 05:38:49;;;;;;;33.25;26.90;;;;;;;16.67;95.56;100697.09;5023650;28;20045;-79
2021/06/25 05:41:14;;;;;;;30.70;24.98;;;;;;;16.77;95.68;100705.63;5016525;28;20406;-79
2021/06/25 05:43:41;;;;;;;34.42;28.65;;;;;;;16.66;94.86;100705.28;5014131;28;20037;-79
2021/06/25 05:46:07;;;;;;;30.42;26.17;;;;;;;16.80;94.98;100704.44;5026051;28;20045;-79
2021/06/25 05:48:32;;;;;;;28.77;24.80;;;;;;;16.94;95.03;100706.25;5021868;28;20045;-79
2021/06/25 05:50:58;;;;;;;34.90;28.63;;;;;;;16.80;93.71;100704.44;5021146;28;20073;-79
2021/06/25 05:53:24;;;;;;;34.90;28.75;;;;;;;16.91;93.57;100716.50;5032082;28;20038;-79
2021/06/25 05:55:49;;;;;;;34.20;27.15;;;;;;;17.02;93.39;100716.00;5030693;28;20040;-79
2021/06/25 05:58:14;;;;;;;33.25;28.33;;;;;;;17.05;93.06;100720.16;5013513;28;20132;-79
2021/06/25 06:00:40;;;;;;;26.58;22.08;;;;;;;17.25;93.37;100723.00;5030669;28;20037;-79
2021/06/25 06:03:05;;;;;;;32.55;28.08;;;;;;;17.22;92.83;100724.22;5046369;28;20041;-79
2021/06/25 06:05:31;;;;;;;33.08;27.10;;;;;;;17.23;92.60;100731.22;5025603;28;20037;-79
2021/06/25 06:07:56;;;;;;;35.38;29.63;;;;;;;17.33;92.54;100734.41;5032603;28;20047;-79
2021/06/25 06:10:21;;;;;;;38.70;31.05;;;;;;;17.16;91.71;100731.16;5030754;28;20548;-79
2021/06/25 06:12:47;;;;;;;32.30;26.02;;;;;;;17.30;91.54;100733.94;5027610;28;20037;-79
2021/06/25 06:15:15;;;;;;;37.95;31.77;;;;;;;17.24;91.21;100730.22;5033735;28;20049;-79
2021/06/25 06:17:43;;;;;;;41.78;33.97;;;;;;;17.19;90.68;100725.44;5030552;28;20060;-79
2021/06/25 06:20:14;;;;;;;34.28;28.17;;;;;;;17.36;91.38;100727.84;5028689;28;20111;-79
2021/06/25 06:36:32;;;;;;;38.20;32.42;;;;;;;17.69;88.44;100741.50;5031806;28;20564;-78
2021/06/25 06:39:00;;;;;;;37.08;30.65;;;;;;;17.69;89.05;100741.50;5032063;28;20049;-79
2021/06/25 06:41:27;;;;;;;32.15;27.15;;;;;;;17.77;89.03;100743.22;5025010;28;20045;-79
2021/06/25 06:43:52;;;;;;;28.65;24.23;;;;;;;18.01;89.32;100747.34;5031352;28;20533;-79
2021/06/25 06:46:18;;;;;;;34.67;27.52;;;;;;;18.29;89.09;100752.66;5030455;28;20042;-79
2021/06/25 06:48:46;;;;;;;37.20;31.40;;;;;;;18.44;87.07;100763.25;5027071;28;20112;-79
2021/06/25 06:51:13;;;;;;;37.90;29.90;;;;;;;18.61;86.59;100756.53;5030604;28;20079;-79
2021/06/25 06:53:42;;;;;;;37.70;31.95;;;;;;;18.29;85.43;100758.03;5030024;28;20560;-79
2021/06/25 06:56:10;;;;;;;28.40;24.98;;;;;;;18.53;87.76;100758.56;5025451;28;20130;-79
2021/06/25 06:58:35;;;;;;;30.63;25.50;;;;;;;18.96;86.60;100761.88;5022506;28;20075;-79
2021/06/25 07:01:01;;;;;;;31.55;26.13;;;;;;;18.98;85.63;100762.50;5030736;28;20494;-79
2021/06/25 07:03:26;;;;;;;30.98;26.30;;;;;;;19.12;85.48;100767.91;5025510;28;20037;-79
2021/06/25 07:05:52;;;;;;;26.27;22.98;;;;;;;19.23;84.46;100768.13;5026303;28;20117;-80
2021/06/25 07:08:17;;;;;;;25.45;22.38;;;;;;;19.31;83.35;100769.81;5019449;28;20098;-79
2021/06/25 07:10:43;;;;;;;23.70;19.92;;;;;;;19.59;85.44;100772.28;5012989;28;20042;-79
2021/06/25 07:13:08;;;;;;;28.55;24.40;;;;;;;19.76;83.34;100775.47;5040728;28;20079;-79
2021/06/25 07:15:33;;;;;;;27.10;22.85;;;;;;;19.87;83.69;100769.44;5039509;28;20105;-79
2021/06/25 07:17:59;;;;;;;27.27;23.17;;;;;;;19.93;82.67;100781.22;5026141;28;20625;-79
2021/06/25 07:20:25;;;;;;;30.95;25.75;;;;;;;19.82;80.64;100781.84;5030284;28;20095;-79
2021/06/25 07:22:50;;;;;;;25.02;22.27;;;;;;;19.43;81.34;100786.94;5030944;28;20522;-79
2021/06/25 07:25:15;;;;;;;23.60;20.05;;;;;;;19.40;82.18;100787.34;5036666;28;20048;-79
2021/06/25 07:27:42;;;;;;;24.15;21.20;;;;;;;19.31;82.07;100785.88;5022157;28;20053;-79
2021/06/25 07:30:08;;;;;;;27.92;24.95;;;;;;;19.07;82.04;100781.91;5027904;28;20072;-78
2021/06/25 07:32:33;;;;;;;26.80;23.55;;;;;;;19.04;82.51;100779.59;5030701;28;20034;-79
2021/06/25 07:34:59;;;;;;;30.55;24.27;;;;;;;18.94;82.07;100774.63;5029833;28;20383;-78
2021/06/25 07:37:24;;;;;;;29.98;24.63;;;;;;;19.05;82.94;100775.91;5028849;28;20041;-79
2021/06/25 07:39:50;;;;;;;27.00;21.88;;;;;;;19.27;83.13;100777.41;5031023;28;20175;-78
2021/06/25 07:42:15;;;;;;;26.52;23.55;;;;;;;19.36;82.77;100774.56;5041673;28;20044;-79
2021/06/25 07:44:41;;;;;;;21.63;19.13;;;;;;;19.56;82.46;100772.72;5025967;28;20040;-79
2021/06/25 07:47:06;;;;;;;24.73;21.50;;;;;;;19.62;81.48;100773.78;5031165;28;20044;-79
2021/06/25 07:49:32;;;;;;;30.45;25.30;;;;;;;19.71;81.49;100777.91;5025837;28;20088;-78
2021/06/25 07:51:57;;;;;;;28.10;23.70;;;;;;;19.59;80.84;100780.34;5024896;28;20552;-78
2021/06/25 07:54:23;;;;;;;27.30;24.30;;;;;;;19.47;81.14;100776.63;5030671;28;20048;-78
2021/06/25 07:56:48;;;;;;;27.90;24.20;;;;;;;19.49;81.29;100777.25;5023675;28;20123;-79
2021/06/25 07:59:14;;;;;;;29.23;24.77;;;;;;;19.35;81.53;100778.25;5021367;28;20033;-79
2021/06/25 08:01:39;;;;;;;28.40;25.25;;;;;;;19.08;80.38;100776.31;5017972;28;20121;-78
2021/06/25 08:04:05;;;;;;;29.45;25.23;;;;;;;18.97;81.07;100771.53;5024482;28;20127;-79
2021/06/25 08:06:30;;;;;;;31.52;25.80;;;;;;;18.84;81.70;100774.19;5011087;28;20534;-78
2021/06/25 08:08:56;;;;;;;32.40;26.30;;;;;;;18.73;81.95;100775.53;5024157;28;20044;-79
2021/06/25 08:11:22;;;;;;;25.20;22.48;;;;;;;18.75;82.53;100772.69;5045324;28;20460;-79
2021/06/25 08:13:47;;;;;;;28.90;25.52;;;;;;;18.68;82.79;100784.19;5043991;28;20041;-78
2021/06/25 08:16:12;;;;;;;35.15;29.00;;;;;;;18.58;83.08;100783.72;5026657;28;20042;-79
2021/06/25 08:18:38;;;;;;;31.30;27.13;;;;;;;18.55;84.07;100777.94;5038063;28;20033;-79
2021/06/25 08:21:03;;;;;;;37.35;29.83;;;;;;;18.54;83.85;100779.78;5048907;28;20136;-78
2021/06/25 08:23:29;;;;;;;28.35;25.35;;;;;;;18.66;83.99;100774.69;5024788;28;20379;-79
2021/06/25 08:25:54;;;;;;;41.53;30.83;;;;;;;18.44;83.67;100776.63;5024530;28;20115;-78
2021/06/25 08:28:19;;;;;;;40.83;31.10;;;;;;;18.30;83.08;100785.63;5035056;28;20033;-78
2021/06/25 08:30:45;;;;;;;37.65;30.42;;;;;;;18.07;83.88;100778.69;5032318;28;20048;-78
2021/06/25 08:33:10;;;;;;;40.88;32.55;;;;;;;18.01;83.98;100772.25;5033317;28;20075;-78
2021/06/25 08:35:36;;;;;;;39.38;31.40;;;;;;;18.07;82.92;100770.66;5029662;28;20045;-77
2021/06/25 08:38:01;;;;;;;42.28;32.15;;;;;;;17.95;83.28;100777.56;5029283;28;20037;-78
2021/06/25 08:40:27;;;;;;;42.92;33.22;;;;;;;17.99;83.39;100774.28;5024920;28;20037;-78
2021/06/25 08:42:52;;;;;;;40.65;32.75;;;;;;;17.94;83.61;100775.88;5019827;28;20034;-78
2021/06/25 08:45:18;;;;;;;44.88;32.90;;;;;;;18.03;82.82;100770.19;5035088;28;20040;-78
2021/06/25 08:47:50;;;;;;;37.67;31.35;;;;;;;18.11;83.25;100776.44;5036057;28;20037;-78
2021/06/25 08:50:18;;;;;;;40.38;31.35;;;;;;;18.25;82.01;100779.00;5033343;28;20046;-77
2021/06/25 08:52:46;;;;;;;37.92;28.92;;;;;;;18.44;81.18;100777.47;5020761;28;20440;-78
2021/06/25 08:55:13;;;;;;;36.58;28.88;;;;;;;18.46;82.67;100775.41;5020918;28;20375;-78
2021/06/25 08:57:38;;;;;;;36.15;29.23;;;;;;;18.61;80.70;100769.09;5029103;28;20497;-78
2021/06/25 09:00:08;;;;;;;33.38;27.33;;;;;;;18.81;80.56;100769.25;5041773;28;20128;-77
2021/06/25 09:02:35;;;;;;;33.95;26.67;;;;;;;18.91;80.34;100771.53;5029646;28;20103;-78
2021/06/25 09:05:04;;;;;;;34.13;27.92;;;;;;;19.08;79.60;100773.66;5027525;28;20128;-78
2021/06/25 09:07:44;;;;;;;33.60;26.10;;;;;;;19.33;78.05;100775.78;5033856;28;20029;-77
2021/06/25 09:10:11;;;;;;;31.40;24.90;;;;;;;19.64;78.72;100771.69;5027938;28;20042;-78
2021/06/25 09:12:38;;;;;;;28.80;23.30;;;;;;;19.86;76.82;100775.03;5031437;28;20037;-78
2021/06/25 09:15:14;;;;;;;29.33;24.63;;;;;;;19.63;75.29;100764.69;5022335;28;20037;-78
2021/06/25 09:17:58;;;;;;;32.65;25.58;;;;;;;19.78;75.90;100777.91;5027032;28;20479;-78
2021/06/25 09:20:41;;;;;;;29.40;23.10;;;;;;;19.85;76.95;100776.88;5027970;28;20103;-78
2021/06/25 09:23:12;;;;;;;26.98;20.85;;;;;;;20.35;76.75;100771.88;5045024;28;20046;-77
2021/06/25 09:25:49;;;;;;;27.58;21.45;;;;;;;20.90;75.66;100768.81;5030114;28;20504;-78
2021/06/25 09:28:22;;;;;;;28.35;22.08;;;;;;;21.31;74.60;100772.94;5028996;28;20288;-78
2021/06/25 09:30:48;;;;;;;24.67;21.73;;;;;;;21.22;73.02;100768.88;5025600;28;20485;-79
2021/06/25 09:33:13;;;;;;;29.80;24.55;;;;;;;20.71;70.99;100769.72;5019381;28;20050;-78
2021/06/25 09:35:39;;;;;;;29.17;23.60;;;;;;;20.57;71.34;100766.28;5007121;28;20044;-78
2021/06/25 09:38:04;;;;;;;26.35;22.02;;;;;;;20.87;72.67;100761.19;5011779;28;20091;-78
2021/06/25 09:40:35;;;;;;;24.08;20.23;;;;;;;21.19;71.74;100755.84;5023131;28;20038;-77
2021/06/25 09:43:10;;;;;;;16.95;14.90;;;;;;;21.60;70.75;100768.84;5033136;28;20048;-78
2021/06/25 09:45:46;;;;;;;18.45;16.02;;;;;;;21.89;73.79;100758.47;5026912;28;20075;-78
2021/06/25 09:48:12;;;;;;;27.95;21.40;;;;;;;21.97;68.98;100763.53;5047541;28;20088;-78
2021/06/25 09:50:38;;;;;;;22.88;19.67;;;;;;;21.79;69.20;100760.84;5033799;28;20594;-78
2021/06/25 09:53:06;;;;;;;23.90;19.83;;;;;;;21.69;69.12;100766.72;5032302;28;20041;-78
2021/06/25 10:01:22;;;;;;;22.88;19.98;;;;;;;21.38;69.06;100762.13;5026941;28;20037;-78
2021/06/25 10:03:53;;;;;;;24.20;20.80;;;;;;;21.36;69.97;100764.22;5034472;28;20303;-78
2021/06/25 10:06:21;;;;;;;25.70;21.02;;;;;;;21.35;69.20;100760.69;5032813;28;20040;-78
2021/06/25 10:08:47;;;;;;;30.40;23.08;;;;;;;21.26;68.25;100770.09;5026990;28;20105;-78
2021/06/25 10:11:15;;;;;;;22.83;19.98;;;;;;;21.26;68.75;100769.25;5033425;28;20045;-77
2021/06/25 10:13:41;;;;;;;23.08;19.48;;;;;;;21.21;68.64;100768.03;5035053;28;20414;-77
2021/06/25 10:16:08;;;;;;;23.05;19.00;;;;;;;21.26;68.19;100772.78;5031192;28;20052;-78
2021/06/25 10:18:37;;;;;;;25.13;20.35;;;;;;;21.36;69.14;100767.75;5031308;28;20030;-78
2021/06/25 10:21:04;;;;;;;24.52;21.48;;;;;;;21.34;68.63;100764.44;5033707;28;20072;-77
2021/06/25 10:23:32;;;;;;;23.38;18.60;;;;;;;21.50;68.66;100763.13;5034348;28;20033;-78
2021/06/25 10:26:00;;;;;;;25.80;22.52;;;;;;;21.16;69.97;100769.72;5027232;28;20488;-78
2021/06/25 10:28:27;;;;;;;25.80;22.70;;;;;;;21.49;68.82;100766.03;5048237;28;20559;-77
2021/06/25 10:30:53;;;;;;;23.20;18.00;;;;;;;21.91;68.33;100769.00;5033808;28;20072;-77
2021/06/25 10:33:19;;;;;;;23.02;19.83;;;;;;;21.96;68.21;100771.88;5015858;28;20034;-77
2021/06/25 10:35:48;;;;;;;22.75;20.33;;;;;;;22.07;67.11;100763.03;5049162;28;20132;-77
2021/06/25 10:38:15;;;;;;;22.42;19.63;;;;;;;22.19;66.57;100769.38;5033665;28;20030;-78
2021/06/25 10:40:55;;;;;;;25.33;21.95;;;;;;;22.04;66.95;100768.88;5035141;28;20048;-77
2021/06/25 10:43:39;;;;;;;26.65;23.30;;;;;;;21.56;65.37;100764.09;5028034;28;20037;-77
2021/06/25 10:46:04;;;;;;;25.98;22.15;;;;;;;21.77;68.28;100766.41;5032475;28;20045;-77
2021/06/25 10:48:38;;;;;;;25.63;21.48;;;;;;;22.20;66.33;100764.78;5030897;28;20063;-77
2021/06/25 10:51:43;;;;;;;28.70;23.50;;;;;;;22.02;66.35;100765.56;5030363;28;20540;-77
2021/06/25 10:54:17;;;;;;;27.20;23.08;;;;;;;22.21;65.60;100761.06;5007989;28;20042;-77
2021/06/25 10:56:48;;;;;;;26.17;22.10;;;;;;;22.50;64.69;100764.94;5027863;28;20111;-77
2021/06/25 10:59:28;;;;;;;33.85;27.45;;;;;;;22.85;62.08;100762.41;5032047;28;20110;-77
2021/06/25 11:01:55;;;;;;;27.15;22.20;;;;;;;22.93;62.51;100758.59;5017008;28;20038;-77
2021/06/25 11:04:35;;;;;;;26.75;22.77;;;;;;;23.26;60.67;100762.72;5029289;28;20044;-77
2021/06/25 11:07:05;;;;;;;25.48;22.77;;;;;;;22.93;65.36;100765.84;5014209;28;20048;-77
2021/06/25 11:09:49;;;;;;;24.40;21.42;;;;;;;23.10;62.45;100756.91;5015979;28;20079;-77
2021/06/25 11:12:21;;;;;;;21.92;19.63;;;;;;;23.15;64.64;100756.25;5045861;28;20546;-77
2021/06/25 11:14:48;;;;;;;21.35;19.00;;;;;;;23.41;60.98;100755.03;5031195;28;20136;-77
2021/06/25 11:17:52;;;;;;;26.42;22.02;;;;;;;23.34;59.98;100756.19;5022585;28;20288;-76
2021/06/25 11:20:33;;;;;;;22.55;18.63;;;;;;;23.25;60.56;100753.78;5015246;28;20296;-77
2021/06/25 11:23:10;;;;;;;22.73;20.27;;;;;;;22.82;61.44;100759.34;5019059;28;20037;-77
2021/06/25 11:25:51;;;;;;;19.77;17.70;;;;;;;22.92;62.07;100748.03;5033619;28;20033;-77
2021/06/25 11:28:32;;;;;;;16.95;15.25;;;;;;;23.02;61.45;100742.94;5038030;28;20588;-77
2021/06/25 11:31:00;;;;;;;18.20;15.05;;;;;;;23.08;61.80;100750.13;5018770;28;20557;-77